Time;durP1;ratioP1;P1;durP2;ratioP2;P2;SDS_P1;SDS_P2;PMS_P1;PMS_P2;Temp;Humidity;BMP_temperature;BMP_pressure;BME280_temperature;BME280_humidity;BME280_pressure;Samples;Min_cycle;Max_cycle;Signal;HPM_P1;HPM_P2
2021/04/07 00:01:56;;;;;;;1.17;0.52;;;23.40;24.00;;;;;;5049704;28;20131;-52
2021/04/07 00:04:23;;;;;;;1.25;0.57;;;23.40;24.00;;;;;;5052186;28;20108;-51
2021/04/07 00:06:49;;;;;;;1.70;0.70;;;23.40;24.00;;;;;;5035504;28;20029;-55
2021/04/07 00:09:16;;;;;;;1.70;0.50;;;23.30;24.00;;;;;;5046698;28;20040;-49
2021/04/07 00:11:42;;;;;;;1.50;0.60;;;23.30;24.00;;;;;;5046631;28;20017;-55
2021/04/07 00:14:10;;;;;;;1.05;0.50;;;23.30;24.00;;;;;;5041140;28;20029;-55
2021/04/07 00:16:36;;;;;;;1.45;0.50;;;23.30;24.00;;;;;;5042545;28;20041;-56
2021/04/07 00:19:06;;;;;;;1.70;0.70;;;23.30;24.00;;;;;;5045921;28;20029;-52
2021/04/07 00:21:32;;;;;;;2.05;0.60;;;23.40;24.10;;;;;;5039784;28;20028;-52
2021/04/07 00:23:58;;;;;;;2.13;0.70;;;23.30;24.00;;;;;;5042089;28;20021;-56
2021/04/07 00:26:25;;;;;;;1.92;0.47;;;23.30;24.00;;;;;;5035468;28;20345;-55
2021/04/07 00:28:51;;;;;;;1.67;0.60;;;23.20;24.00;;;;;;5037846;28;20486;-52
2021/04/07 00:31:17;;;;;;;1.05;0.55;;;23.30;24.10;;;;;;5033927;28;20112;-55
2021/04/07 00:33:44;;;;;;;1.27;0.43;;;23.30;24.10;;;;;;5036238;28;20108;-54
2021/04/07 00:36:10;;;;;;;1.27;0.50;;;23.20;24.00;;;;;;5047423;28;20075;-53
2021/04/07 00:38:35;;;;;;;0.95;0.40;;;23.20;24.10;;;;;;5041557;28;20518;-56
2021/04/07 00:41:02;;;;;;;1.02;0.50;;;23.20;24.10;;;;;;5043206;28;20021;-56
2021/04/07 00:43:28;;;;;;;1.77;0.45;;;23.20;24.10;;;;;;5045560;28;20110;-53
2021/04/07 00:45:54;;;;;;;1.13;0.40;;;23.20;24.10;;;;;;5045141;28;20810;-52
2021/04/07 00:48:20;;;;;;;0.65;0.45;;;23.20;24.10;;;;;;5042035;28;20033;-55
2021/04/07 00:50:47;;;;;;;1.13;0.60;;;23.20;24.10;;;;;;5002524;28;20053;-50
2021/04/07 00:53:13;;;;;;;1.08;0.50;;;23.10;24.10;;;;;;5029761;28;20043;-57
2021/04/07 00:55:46;;;;;;;1.15;0.43;;;23.20;24.10;;;;;;5040476;28;20326;-52
2021/04/07 00:58:16;;;;;;;0.90;0.40;;;23.10;24.10;;;;;;5039970;28;20384;-55
2021/04/07 01:00:43;;;;;;;1.05;0.52;;;23.10;24.10;;;;;;5038884;28;20041;-51
2021/04/07 01:03:14;;;;;;;0.82;0.40;;;23.10;24.10;;;;;;5029631;28;20118;-52
2021/04/07 01:05:41;;;;;;;1.17;0.60;;;23.10;24.10;;;;;;5043925;28;20608;-55
2021/04/07 01:08:06;;;;;;;0.55;0.35;;;23.10;24.10;;;;;;5046139;28;20043;-54
2021/04/07 01:10:33;;;;;;;1.70;0.63;;;23.10;24.20;;;;;;5043810;28;20504;-51
2021/04/07 01:12:59;;;;;;;1.30;0.50;;;23.10;24.10;;;;;;5046604;28;20113;-51
2021/04/07 01:15:26;;;;;;;0.75;0.40;;;23.10;24.10;;;;;;5044745;28;20112;-52
2021/04/07 01:17:55;;;;;;;0.88;0.40;;;23.00;24.10;;;;;;5035670;28;20421;-51
2021/04/07 01:20:21;;;;;;;0.82;0.28;;;23.00;24.10;;;;;;5043093;28;20094;-54
2021/04/07 01:22:59;;;;;;;1.33;0.50;;;23.00;24.10;;;;;;5039484;28;20108;-53
2021/04/07 01:25:25;;;;;;;1.15;0.50;;;23.00;24.10;;;;;;5046887;28;20044;-51
2021/04/07 01:27:51;;;;;;;0.80;0.32;;;23.00;24.20;;;;;;5036119;28;20111;-52
2021/04/07 01:30:18;;;;;;;0.80;0.40;;;23.00;24.20;;;;;;5023064;28;20040;-56
2021/04/07 01:32:44;;;;;;;1.15;0.47;;;23.00;24.20;;;;;;5050976;28;20060;-56
2021/04/07 01:35:12;;;;;;;2.67;0.80;;;23.00;24.20;;;;;;5043105;28;20029;-54
2021/04/07 01:37:39;;;;;;;0.80;0.40;;;22.90;24.20;;;;;;5048419;28;20025;-56
2021/04/07 01:40:08;;;;;;;1.67;0.60;;;23.00;24.30;;;;;;5043863;28;20118;-52
2021/04/07 01:42:35;;;;;;;1.05;0.45;;;22.90;24.20;;;;;;5045841;28;20137;-54
2021/04/07 01:45:04;;;;;;;2.05;0.55;;;22.90;24.30;;;;;;5037732;28;20053;-55
2021/04/07 01:47:32;;;;;;;1.55;0.50;;;22.90;24.30;;;;;;5049778;28;20033;-55
2021/04/07 01:50:00;;;;;;;1.38;0.40;;;22.90;24.30;;;;;;5042823;28;20021;-50
2021/04/07 01:52:28;;;;;;;0.90;0.32;;;22.90;24.30;;;;;;5047298;28;20329;-53
2021/04/07 01:54:55;;;;;;;1.15;0.40;;;22.90;24.40;;;;;;5040817;28;20022;-54
2021/04/07 01:57:23;;;;;;;1.23;0.50;;;22.90;24.40;;;;;;5044781;28;20025;-53
2021/04/07 01:59:49;;;;;;;0.65;0.40;;;22.90;24.40;;;;;;5046727;28;20029;-55
2021/04/07 02:02:15;;;;;;;0.90;0.50;;;22.90;24.90;;;;;;5030762;28;20340;-50
2021/04/07 02:04:42;;;;;;;1.50;0.50;;;22.90;24.50;;;;;;5043765;28;20028;-50
2021/04/07 02:07:17;;;;;;;1.13;0.47;;;22.90;24.50;;;;;;5035217;28;20038;-53
2021/04/07 02:09:44;;;;;;;0.98;0.30;;;22.90;24.50;;;;;;5034305;28;20123;-52
2021/04/07 02:12:10;;;;;;;1.08;0.43;;;22.80;24.50;;;;;;5047717;28;20033;-55
2021/04/07 02:14:36;;;;;;;1.25;0.50;;;22.80;24.50;;;;;;5036123;28;20091;-51
2021/04/07 02:17:04;;;;;;;0.65;0.22;;;22.80;24.50;;;;;;5037657;28;20718;-52
2021/04/07 02:19:33;;;;;;;1.40;0.40;;;22.80;24.60;;;;;;5041878;28;20040;-51
2021/04/07 02:22:09;;;;;;;0.50;0.30;;;22.80;24.60;;;;;;5044169;28;20095;-54
2021/04/07 02:24:37;;;;;;;1.30;0.40;;;22.80;24.60;;;;;;5038040;28;20112;-52
2021/04/07 02:27:18;;;;;;;0.50;0.30;;;22.80;24.70;;;;;;5040084;28;20516;-48
2021/04/07 02:29:46;;;;;;;0.68;0.40;;;22.80;24.70;;;;;;5045011;28;20029;-52
2021/04/07 02:32:14;;;;;;;1.02;0.40;;;22.70;24.70;;;;;;5043087;28;20316;-50
2021/04/07 02:34:42;;;;;;;1.73;0.40;;;22.70;24.70;;;;;;5047177;28;20033;-56
2021/04/07 02:37:10;;;;;;;0.45;0.30;;;22.80;24.70;;;;;;5052365;28;20413;-51
2021/04/07 02:39:36;;;;;;;0.70;0.40;;;22.70;24.70;;;;;;5025787;28;20032;-51
2021/04/07 02:42:02;;;;;;;0.70;0.40;;;22.70;24.70;;;;;;5050413;28;20025;-54
2021/04/07 02:44:28;;;;;;;0.73;0.40;;;22.70;24.80;;;;;;5050047;28;20029;-55
2021/04/07 02:46:54;;;;;;;0.75;0.45;;;22.70;24.80;;;;;;5033860;28;20067;-48
2021/04/07 02:49:20;;;;;;;0.80;0.30;;;22.70;24.90;;;;;;5042506;28;20032;-51
2021/04/07 02:51:46;;;;;;;0.85;0.35;;;22.70;24.90;;;;;;5045926;28;20040;-51
2021/04/07 02:54:12;;;;;;;1.15;0.47;;;22.70;24.90;;;;;;5045278;28;20032;-55
2021/04/07 02:56:39;;;;;;;0.60;0.30;;;22.70;24.90;;;;;;5040840;28;20029;-55
2021/04/07 02:59:05;;;;;;;0.80;0.43;;;22.70;24.90;;;;;;5036995;28;20044;-53
2021/04/07 03:01:31;;;;;;;1.27;0.35;;;22.60;24.90;;;;;;5051167;28;20432;-54
2021/04/07 03:03:57;;;;;;;0.43;0.25;;;22.60;24.90;;;;;;5022590;28;21574;-54
2021/04/07 03:06:23;;;;;;;0.60;0.40;;;22.60;24.90;;;;;;5045169;28;20040;-54
2021/04/07 03:08:49;;;;;;;0.73;0.30;;;22.60;24.90;;;;;;5049709;28;20471;-51
2021/04/07 03:11:16;;;;;;;1.80;0.47;;;22.60;25.00;;;;;;5041205;28;20034;-54
2021/04/07 03:13:42;;;;;;;0.22;0.20;;;22.60;25.00;;;;;;5048226;28;20020;-54
2021/04/07 03:16:09;;;;;;;0.68;0.40;;;22.60;25.00;;;;;;5044389;28;20128;-52
2021/04/07 03:18:36;;;;;;;0.70;0.25;;;22.60;25.00;;;;;;5043026;28;20338;-54
2021/04/07 03:21:03;;;;;;;0.65;0.40;;;22.60;25.00;;;;;;5044084;28;20102;-52
2021/04/07 03:23:29;;;;;;;0.80;0.30;;;22.60;25.00;;;;;;5041294;28;20025;-51
2021/04/07 03:25:55;;;;;;;0.55;0.30;;;22.60;25.00;;;;;;5048146;28;20048;-50
2021/04/07 03:28:21;;;;;;;0.28;0.15;;;22.60;25.10;;;;;;5041617;28;20345;-51
2021/04/07 03:30:53;;;;;;;0.30;0.20;;;22.60;25.10;;;;;;5051421;28;20029;-52
2021/04/07 03:33:24;;;;;;;0.57;0.30;;;22.50;25.00;;;;;;5050954;28;20111;-53
2021/04/07 03:35:51;;;;;;;3.33;0.55;;;22.50;25.10;;;;;;5050476;28;20044;-50
2021/04/07 03:38:18;;;;;;;0.40;0.22;;;22.50;25.10;;;;;;5044718;28;20060;-54
2021/04/07 03:40:45;;;;;;;0.68;0.20;;;22.50;25.10;;;;;;5043553;28;20105;-52
2021/04/07 03:43:13;;;;;;;0.30;0.10;;;22.50;25.10;;;;;;5035617;28;20026;-55
2021/04/07 03:45:43;;;;;;;0.82;0.30;;;22.50;25.10;;;;;;5038040;28;20057;-55
2021/04/07 03:48:12;;;;;;;0.55;0.30;;;22.50;25.20;;;;;;5037608;28;20042;-53
2021/04/07 03:51:15;;;;;;;0.38;0.20;;;22.50;25.20;;;;;;5027817;28;20025;-54
2021/04/07 03:53:41;;;;;;;0.60;0.25;;;22.50;25.20;;;;;;5047482;28;20025;-55
2021/04/07 03:56:06;;;;;;;0.43;0.28;;;22.40;25.20;;;;;;5047135;28;20040;-53
2021/04/07 03:58:32;;;;;;;1.17;0.30;;;22.50;25.20;;;;;;5046774;28;20108;-51
2021/04/07 04:01:00;;;;;;;0.30;0.20;;;22.50;25.30;;;;;;5040570;28;20618;-48
2021/04/07 04:03:26;;;;;;;0.40;0.15;;;22.50;25.30;;;;;;5047632;28;20479;-53
2021/04/07 04:05:51;;;;;;;1.23;0.35;;;22.50;25.30;;;;;;5042207;28;20128;-51
2021/04/07 04:08:18;;;;;;;0.47;0.30;;;22.40;25.30;;;;;;5025258;28;20037;-50
2021/04/07 04:10:44;;;;;;;0.65;0.20;;;22.40;25.30;;;;;;5044749;28;20088;-52
2021/04/07 04:13:09;;;;;;;0.57;0.30;;;22.40;25.30;;;;;;5034428;28;20060;-53
2021/04/07 04:15:35;;;;;;;1.08;0.30;;;22.40;25.30;;;;;;5049938;28;20063;-53
2021/04/07 04:18:04;;;;;;;0.50;0.30;;;22.40;25.30;;;;;;5038879;28;20025;-50
2021/04/07 04:20:30;;;;;;;0.55;0.30;;;22.40;25.30;;;;;;5048773;28;20029;-47
2021/04/07 04:22:56;;;;;;;0.38;0.20;;;22.40;25.30;;;;;;5047537;28;20483;-50
2021/04/07 04:25:23;;;;;;;0.43;0.20;;;22.40;25.30;;;;;;5048672;28;20454;-54
2021/04/07 04:27:49;;;;;;;0.40;0.20;;;22.40;25.40;;;;;;5045711;28;20029;-51
2021/04/07 04:30:17;;;;;;;1.90;0.40;;;22.40;25.30;;;;;;5039556;28;20020;-50
2021/04/07 04:32:43;;;;;;;0.40;0.22;;;22.40;25.40;;;;;;5041236;28;20048;-50
2021/04/07 04:35:10;;;;;;;0.40;0.22;;;22.40;25.40;;;;;;5042175;28;20037;-51
2021/04/07 04:37:37;;;;;;;0.10;0.10;;;22.40;25.40;;;;;;5040908;28;20021;-51
2021/04/07 04:40:03;;;;;;;0.80;0.30;;;22.40;25.40;;;;;;5048962;28;20357;-47
2021/04/07 04:42:29;;;;;;;0.90;0.30;;;22.40;25.40;;;;;;5044930;28;20061;-52
2021/04/07 04:44:55;;;;;;;0.45;0.22;;;22.40;25.40;;;;;;5039516;28;20118;-51
2021/04/07 04:47:20;;;;;;;0.80;0.30;;;22.40;25.40;;;;;;5043556;28;20068;-47
2021/04/07 04:49:46;;;;;;;0.90;0.40;;;22.40;25.50;;;;;;5039655;28;20184;-49
2021/04/07 04:52:12;;;;;;;0.30;0.20;;;22.40;25.50;;;;;;5026122;28;20453;-50
2021/04/07 04:54:38;;;;;;;0.90;0.40;;;22.30;25.40;;;;;;5041343;28;20025;-53
2021/04/07 04:57:03;;;;;;;0.50;0.20;;;22.40;25.50;;;;;;5038587;28;20108;-52
2021/04/07 04:59:29;;;;;;;0.20;0.17;;;22.30;25.50;;;;;;5046005;28;20047;-48
2021/04/07 05:01:55;;;;;;;0.70;0.17;;;22.30;25.50;;;;;;5039660;28;20698;-47
2021/04/07 05:04:21;;;;;;;0.85;0.40;;;22.30;25.50;;;;;;5045359;28;20403;-48
2021/04/07 05:06:46;;;;;;;0.80;0.32;;;22.30;25.50;;;;;;5042825;28;20041;-52
2021/04/07 05:09:12;;;;;;;0.50;0.20;;;22.30;25.50;;;;;;5043695;28;20065;-51
2021/04/07 05:11:38;;;;;;;0.45;0.22;;;22.30;25.50;;;;;;5041132;28;20160;-49
2021/04/07 05:14:04;;;;;;;0.43;0.30;;;22.30;25.50;;;;;;5039077;28;20088;-48
2021/04/07 05:16:32;;;;;;;0.30;0.10;;;22.30;25.50;;;;;;5046565;28;20024;-51
2021/04/07 05:18:58;;;;;;;0.57;0.10;;;22.30;25.50;;;;;;5052951;28;20094;-51
2021/04/07 05:21:23;;;;;;;0.63;0.32;;;22.30;25.60;;;;;;5050302;28;20025;-51
2021/04/07 05:23:49;;;;;;;0.63;0.28;;;22.30;25.60;;;;;;5051685;28;20501;-50
2021/04/07 05:26:15;;;;;;;0.60;0.20;;;22.20;25.50;;;;;;5046161;28;20084;-48
2021/04/07 05:28:42;;;;;;;0.50;0.20;;;22.30;25.60;;;;;;5044960;28;20049;-46
2021/04/07 05:31:11;;;;;;;0.35;0.30;;;22.20;25.50;;;;;;5038902;28;20471;-52
2021/04/07 05:33:39;;;;;;;0.30;0.20;;;22.20;25.60;;;;;;5036481;28;20033;-51
2021/04/07 05:36:07;;;;;;;0.38;0.20;;;22.20;25.60;;;;;;5049073;28;20348;-52
2021/04/07 05:38:33;;;;;;;0.50;0.30;;;22.30;25.60;;;;;;5017134;28;20029;-48
2021/04/07 05:41:01;;;;;;;0.10;0.10;;;22.20;25.60;;;;;;5052939;28;20037;-47
2021/04/07 05:43:28;;;;;;;0.40;0.28;;;22.20;25.60;;;;;;5038326;28;20049;-50
2021/04/07 05:45:54;;;;;;;0.17;0.10;;;22.20;25.60;;;;;;5035691;28;20053;-55
2021/04/07 05:48:20;;;;;;;0.22;0.13;;;22.20;25.60;;;;;;5033939;28;20109;-50
2021/04/07 05:50:50;;;;;;;0.22;0.10;;;22.20;25.60;;;;;;5035797;28;20037;-47
2021/04/07 05:53:17;;;;;;;0.50;0.25;;;22.20;25.70;;;;;;5033433;28;20098;-49
2021/04/07 05:55:47;;;;;;;0.15;0.15;;;22.20;25.70;;;;;;5048267;28;20455;-52
2021/04/07 05:58:13;;;;;;;0.65;0.32;;;22.20;25.70;;;;;;5051567;28;20051;-47
2021/04/07 06:00:40;;;;;;;0.30;0.20;;;22.20;25.70;;;;;;5049554;28;20143;-48
2021/04/07 06:03:07;;;;;;;0.30;0.13;;;22.20;25.70;;;;;;5026172;28;20138;-49
2021/04/07 06:05:39;;;;;;;0.20;0.10;;;22.20;25.70;;;;;;5046760;28;20073;-51
2021/04/07 06:08:05;;;;;;;1.45;0.10;;;22.20;25.70;;;;;;5056184;28;20392;-51
2021/04/07 06:10:37;;;;;;;0.28;0.10;;;22.20;25.70;;;;;;5037272;28;20030;-50
2021/04/07 06:13:04;;;;;;;0.10;0.10;;;22.20;25.70;;;;;;5019214;28;20030;-55
2021/04/07 06:15:30;;;;;;;0.30;0.10;;;22.20;25.70;;;;;;5053343;28;20450;-55
2021/04/07 06:17:59;;;;;;;0.35;0.20;;;22.20;25.70;;;;;;5037949;28;20040;-52
2021/04/07 06:20:28;;;;;;;0.38;0.20;;;22.20;25.70;;;;;;5021047;28;20108;-54
2021/04/07 06:22:55;;;;;;;0.20;0.20;;;22.20;25.60;;;;;;5041734;28;20342;-54
2021/04/07 06:25:21;;;;;;;0.30;0.10;;;22.20;25.60;;;;;;5054722;28;20474;-52
2021/04/07 06:27:55;;;;;;;0.22;0.15;;;22.20;25.60;;;;;;5053381;28;20116;-54
2021/04/07 06:30:40;;;;;;;0.28;0.20;;;22.20;25.70;;;;;;5055453;28;20383;-54
2021/04/07 06:33:10;;;;;;;0.35;0.10;;;22.10;25.70;;;;;;5038338;28;20403;-55
2021/04/07 06:35:36;;;;;;;0.40;0.20;;;22.10;25.70;;;;;;5039694;28;20433;-49
2021/04/07 06:38:02;;;;;;;0.30;0.30;;;22.10;25.70;;;;;;5042898;28;20083;-55
2021/04/07 06:40:29;;;;;;;0.40;0.20;;;22.10;25.70;;;;;;5048267;28;20344;-52
2021/04/07 06:42:57;;;;;;;0.40;0.20;;;22.10;25.70;;;;;;5037382;28;20053;-54
2021/04/07 06:45:23;;;;;;;0.15;0.10;;;22.10;25.80;;;;;;5034689;28;20048;-50
2021/04/07 06:47:50;;;;;;;0.57;0.30;;;22.10;25.80;;;;;;5056390;28;20037;-53
2021/04/07 06:50:16;;;;;;;0.50;0.28;;;22.00;25.80;;;;;;5054680;28;20021;-51
2021/04/07 06:52:44;;;;;;;0.73;0.22;;;22.00;25.90;;;;;;5046067;28;20018;-54
2021/04/07 06:55:11;;;;;;;0.60;0.32;;;22.00;26.00;;;;;;5051044;28;20090;-57
2021/04/07 06:57:37;;;;;;;0.30;0.20;;;22.00;26.10;;;;;;5046038;28;20017;-56
2021/04/07 07:00:07;;;;;;;0.35;0.20;;;22.10;26.20;;;;;;5049265;28;20048;-51
2021/04/07 07:02:34;;;;;;;0.38;0.10;;;22.20;26.20;;;;;;5055594;28;20025;-57
2021/04/07 07:05:01;;;;;;;0.80;0.30;;;22.20;26.20;;;;;;5044993;28;20582;-51
2021/04/07 07:07:28;;;;;;;0.40;0.10;;;22.30;26.20;;;;;;5040503;28;20025;-55
2021/04/07 07:09:55;;;;;;;0.30;0.15;;;22.40;26.20;;;;;;5054411;28;20529;-54
2021/04/07 07:12:22;;;;;;;0.50;0.30;;;22.40;26.20;;;;;;5051916;28;20041;-50
2021/04/07 07:14:48;;;;;;;0.45;0.20;;;22.50;26.20;;;;;;5045448;28;20075;-51
2021/04/07 07:17:32;;;;;;;0.60;0.30;;;22.60;26.30;;;;;;5047079;28;20025;-53
2021/04/07 07:19:58;;;;;;;0.57;0.30;;;22.70;26.40;;;;;;5040563;28;20040;-54
2021/04/07 07:22:29;;;;;;;0.57;0.40;;;22.80;26.50;;;;;;5055300;28;20041;-55
2021/04/07 07:24:58;;;;;;;2.70;0.22;;;22.80;26.60;;;;;;5020025;28;20037;-50
2021/04/07 07:27:43;;;;;;;0.45;0.20;;;22.90;26.60;;;;;;5055989;28;20049;-56
2021/04/07 07:30:12;;;;;;;0.50;0.22;;;23.00;26.60;;;;;;5049688;28;20142;-54
2021/04/07 07:32:41;;;;;;;0.65;0.32;;;23.10;26.70;;;;;;5026952;28;20029;-53
2021/04/07 07:35:17;;;;;;;4.47;0.40;;;23.20;26.70;;;;;;5047135;28;20044;-52
2021/04/07 07:37:44;;;;;;;0.65;0.43;;;23.30;26.70;;;;;;5055096;28;20455;-54
2021/04/07 07:40:16;;;;;;;1.27;0.30;;;23.40;26.70;;;;;;5051268;28;20040;-48
2021/04/07 07:42:43;;;;;;;0.75;0.40;;;23.40;26.60;;;;;;5042911;28;20033;-46
2021/04/07 07:45:09;;;;;;;0.30;0.20;;;23.50;26.60;;;;;;5045630;28;20474;-55
2021/04/07 07:47:41;;;;;;;0.80;0.32;;;23.60;26.60;;;;;;5045644;28;20044;-53
2021/04/07 07:50:09;;;;;;;1.00;0.40;;;23.70;26.50;;;;;;5050832;28;20116;-51
2021/04/07 07:52:37;;;;;;;0.95;0.40;;;23.80;26.40;;;;;;5045326;28;20032;-54
2021/04/07 07:55:17;;;;;;;1.30;0.43;;;23.90;26.40;;;;;;5049591;28;20083;-55
2021/04/07 07:57:57;;;;;;;0.40;0.20;;;23.90;26.30;;;;;;5031145;28;20034;-50
2021/04/07 08:00:23;;;;;;;0.75;0.30;;;24.00;26.20;;;;;;5039058;28;20048;-53
2021/04/07 08:02:50;;;;;;;0.90;0.30;;;24.10;26.20;;;;;;5035479;28;20045;-55
2021/04/07 08:05:21;;;;;;;0.38;0.20;;;24.10;26.20;;;;;;5047049;28;20098;-53
2021/04/07 08:07:47;;;;;;;0.77;0.30;;;24.10;26.10;;;;;;5053770;28;20119;-50
2021/04/07 08:10:14;;;;;;;0.93;0.30;;;24.20;26.10;;;;;;5025011;28;20462;-55
2021/04/07 08:12:42;;;;;;;1.15;0.40;;;24.20;26.10;;;;;;5017508;28;20090;-53
2021/04/07 08:15:11;;;;;;;0.65;0.32;;;24.20;26.00;;;;;;5049909;28;20029;-53
2021/04/07 08:17:37;;;;;;;1.20;0.40;;;24.20;26.00;;;;;;5025332;28;20356;-53
2021/04/07 08:20:07;;;;;;;1.23;0.52;;;24.30;26.00;;;;;;5041215;28;20039;-53
2021/04/07 08:22:34;;;;;;;0.95;0.30;;;24.30;26.00;;;;;;5023924;28;20874;-54
2021/04/07 08:25:04;;;;;;;0.73;0.35;;;24.30;26.00;;;;;;5043677;28;20033;-55
2021/04/07 08:27:35;;;;;;;1.58;0.60;;;24.30;26.00;;;;;;5044602;28;20392;-55
2021/04/07 08:30:05;;;;;;;1.05;0.40;;;24.30;26.00;;;;;;5041248;28;20128;-50
2021/04/07 08:32:31;;;;;;;1.25;0.40;;;24.30;26.00;;;;;;5045962;28;20044;-53
2021/04/07 08:34:58;;;;;;;2.42;0.63;;;24.30;26.00;;;;;;5050141;28;20032;-52
2021/04/07 08:37:28;;;;;;;1.10;0.50;;;24.30;26.50;;;;;;5041929;28;20037;-52
2021/04/07 08:39:55;;;;;;;0.52;0.40;;;24.30;26.00;;;;;;5040076;28;20076;-52
2021/04/07 08:42:22;;;;;;;1.30;0.68;;;24.30;26.00;;;;;;5036225;28;20436;-53
2021/04/07 08:44:50;;;;;;;0.98;0.50;;;24.30;26.00;;;;;;5044114;28;20029;-54
2021/04/07 08:47:47;;;;;;;1.10;0.40;;;24.30;26.00;;;;;;5043571;28;20115;-51
2021/04/07 08:50:12;;;;;;;1.35;0.50;;;24.30;26.00;;;;;;5029539;28;20512;-54
2021/04/07 08:52:56;;;;;;;1.85;0.60;;;24.30;26.00;;;;;;5051884;28;20029;-51
2021/04/07 08:55:27;;;;;;;0.85;0.40;;;24.30;26.00;;;;;;5036691;28;20792;-52
2021/04/07 08:58:04;;;;;;;1.17;0.60;;;24.30;26.00;;;;;;5051235;28;20100;-48
2021/04/07 09:00:38;;;;;;;1.33;0.60;;;24.30;26.00;;;;;;5042780;28;20025;-51
2021/04/07 09:03:14;;;;;;;1.80;0.60;;;24.30;26.10;;;;;;5040424;28;20033;-55
2021/04/07 09:05:44;;;;;;;2.45;0.80;;;24.30;26.10;;;;;;5044216;28;21928;-49
2021/04/07 09:08:19;;;;;;;2.45;0.90;;;24.30;26.10;;;;;;5045814;28;20022;-53
2021/04/07 09:10:49;;;;;;;;;;;24.30;26.10;;;;;;5044804;28;20035;-53
2021/04/07 09:13:24;;;;;;;1.88;0.77;;;24.20;26.10;;;;;;5049820;28;20052;-56
2021/04/07 09:15:56;;;;;;;2.88;1.10;;;24.20;26.10;;;;;;5052141;28;20040;-52
2021/04/07 09:18:41;;;;;;;4.40;0.70;;;24.20;26.10;;;;;;5043797;28;20371;-55
2021/04/07 09:21:30;;;;;;;3.28;1.02;;;24.10;26.10;;;;;;5021447;28;20033;-54
2021/04/07 09:23:59;;;;;;;2.45;0.90;;;24.10;26.10;;;;;;5050880;28;20048;-56
2021/04/07 09:26:26;;;;;;;2.97;1.30;;;24.10;26.20;;;;;;5052152;28;20428;-55
2021/04/07 09:28:54;;;;;;;2.30;0.80;;;24.10;26.20;;;;;;5052014;28;20098;-51
2021/04/07 09:31:32;;;;;;;2.38;0.90;;;24.10;26.20;;;;;;5045410;28;20095;-52
2021/04/07 09:33:58;;;;;;;2.60;1.00;;;24.10;26.20;;;;;;5045416;28;20033;-56
2021/04/07 09:36:35;;;;;;;2.42;0.90;;;24.10;26.30;;;;;;5035095;28;20029;-48
2021/04/07 09:39:15;;;;;;;2.38;1.00;;;24.00;26.30;;;;;;5057141;28;20029;-54
2021/04/07 09:41:45;;;;;;;2.80;0.95;;;24.10;26.30;;;;;;5050177;28;20037;-54
2021/04/07 09:44:13;;;;;;;3.33;1.10;;;24.00;26.30;;;;;;5042439;28;20448;-53
2021/04/07 09:46:40;;;;;;;2.80;1.27;;;24.00;26.30;;;;;;5045717;28;20114;-53
2021/04/07 09:49:07;;;;;;;2.95;1.00;;;24.00;26.30;;;;;;5029261;28;20033;-55
2021/04/07 09:51:37;;;;;;;2.42;0.90;;;24.00;26.30;;;;;;5047447;28;20444;-51
2021/04/07 09:54:24;;;;;;;3.28;1.27;;;24.10;26.50;;;;;;5051233;28;20028;-54
2021/04/07 09:56:59;;;;;;;2.17;0.90;;;24.10;26.40;;;;;;5043032;28;20422;-47
2021/04/07 09:59:45;;;;;;;3.20;1.00;;;24.00;26.40;;;;;;5052230;28;20048;-53
2021/04/07 10:02:29;;;;;;;2.95;1.23;;;24.00;26.40;;;;;;5053486;28;20029;-55
2021/04/07 10:04:56;;;;;;;2.75;0.80;;;24.00;26.40;;;;;;5048360;28;20064;-55
2021/04/07 10:07:27;;;;;;;2.45;1.10;;;24.00;26.40;;;;;;5046272;28;20033;-54
2021/04/07 10:09:54;;;;;;;2.88;1.10;;;24.00;26.40;;;;;;5053918;28;20033;-54
2021/04/07 10:12:22;;;;;;;2.90;1.20;;;24.00;26.40;;;;;;5036513;28;20028;-54
2021/04/07 10:14:50;;;;;;;2.13;0.75;;;24.00;26.40;;;;;;5038424;28;20033;-52
2021/04/07 10:17:19;;;;;;;2.38;0.80;;;24.00;26.40;;;;;;5047318;28;20118;-55
2021/04/07 10:19:46;;;;;;;2.85;1.13;;;23.90;26.30;;;;;;5048895;28;20040;-53
2021/04/07 10:22:18;;;;;;;2.50;1.13;;;23.90;26.30;;;;;;5047497;28;20028;-51
2021/04/07 10:24:45;;;;;;;2.67;0.95;;;23.90;26.30;;;;;;5044058;28;20045;-50
2021/04/07 10:27:20;;;;;;;2.00;0.82;;;23.90;26.30;;;;;;5024533;28;20036;-52
2021/04/07 10:29:46;;;;;;;2.63;1.10;;;23.90;26.40;;;;;;5043486;28;20029;-54
2021/04/07 10:32:19;;;;;;;1.92;0.90;;;23.90;26.40;;;;;;5044122;28;20033;-54
2021/04/07 10:34:57;;;;;;;2.05;1.05;;;23.90;26.40;;;;;;5038703;28;20024;-50
2021/04/07 10:37:23;;;;;;;3.42;1.55;;;23.90;26.50;;;;;;5052304;28;20091;-55
2021/04/07 10:39:49;;;;;;;3.95;0.98;;;23.90;26.50;;;;;;5050808;28;20424;-54
2021/04/07 10:42:17;;;;;;;3.10;1.20;;;23.90;26.50;;;;;;5047663;28;20021;-53
2021/04/07 10:44:44;;;;;;;3.15;1.00;;;23.90;26.50;;;;;;5049829;28;20377;-51
2021/04/07 10:47:17;;;;;;;2.80;1.15;;;23.90;26.50;;;;;;5050104;28;20057;-53
2021/04/07 10:49:56;;;;;;;1.88;0.90;;;23.90;26.50;;;;;;5043037;28;20051;-54
2021/04/07 10:52:30;;;;;;;4.25;1.00;;;23.90;26.50;;;;;;5045593;28;20033;-51
2021/04/07 10:54:57;;;;;;;4.45;0.98;;;23.90;26.50;;;;;;5050542;28;20416;-47
2021/04/07 10:57:31;;;;;;;3.45;1.00;;;23.90;26.50;;;;;;5042584;28;20037;-47
2021/04/07 10:59:57;;;;;;;3.33;1.20;;;23.90;26.70;;;;;;5051609;28;20037;-52
2021/04/07 11:02:23;;;;;;;6.07;2.13;;;23.90;26.80;;;;;;5051803;28;20094;-55
2021/04/07 11:04:49;;;;;;;6.95;3.03;;;23.90;27.20;;;;;;5021961;28;20032;-52
2021/04/07 11:07:17;;;;;;;8.73;3.45;;;24.00;27.90;;;;;;5021064;28;20037;-52
2021/04/07 11:09:47;;;;;;;9.75;4.10;;;24.00;28.70;;;;;;5052135;28;20467;-48
2021/04/07 11:12:15;;;;;;;9.15;3.33;;;24.00;29.40;;;;;;5049790;28;20033;-55
2021/04/07 11:14:49;;;;;;;6.65;3.30;;;24.10;29.60;;;;;;5055614;28;20047;-59
2021/04/07 11:17:15;;;;;;;7.72;2.70;;;24.20;29.50;;;;;;5047231;28;20028;-52
2021/04/07 11:19:41;;;;;;;4.95;2.20;;;24.20;29.30;;;;;;5051966;28;20029;-54
2021/04/07 11:22:08;;;;;;;6.00;2.20;;;24.30;29.00;;;;;;5055309;28;20029;-57
2021/04/07 11:24:36;;;;;;;4.25;1.73;;;24.30;28.80;;;;;;5043198;28;20047;-56
2021/04/07 11:27:02;;;;;;;3.33;1.35;;;24.40;28.60;;;;;;5048972;28;20045;-54
2021/04/07 11:29:28;;;;;;;3.88;1.60;;;24.50;28.50;;;;;;5048465;28;20033;-55
2021/04/07 11:31:55;;;;;;;6.43;1.35;;;24.50;28.40;;;;;;5040328;28;20036;-51
2021/04/07 11:34:33;;;;;;;2.67;1.02;;;24.60;28.30;;;;;;5040957;28;20041;-51
2021/04/07 11:37:37;;;;;;;4.65;1.00;;;24.60;28.20;;;;;;5028555;28;20029;-54
2021/04/07 11:39:55;;;;;;;3.17;1.20;;;24.60;28.20;;;;;;5040471;28;20041;-51
2021/04/07 11:42:25;;;;;;;2.67;1.08;;;24.60;28.10;;;;;;5040880;28;20029;-58
2021/04/07 11:44:50;;;;;;;2.80;1.30;;;24.60;27.90;;;;;;5044259;28;20044;-53
2021/04/07 11:47:16;;;;;;;2.25;1.15;;;24.70;27.90;;;;;;5048220;28;20456;-54
2021/04/07 11:49:42;;;;;;;2.45;1.17;;;24.70;27.80;;;;;;5039569;28;20436;-56
2021/04/07 11:52:11;;;;;;;2.70;1.27;;;24.70;27.70;;;;;;5035759;28;20064;-59
2021/04/07 11:54:37;;;;;;;3.25;1.20;;;24.70;27.60;;;;;;5053697;28;20045;-53
2021/04/07 11:57:04;;;;;;;3.38;1.25;;;24.70;27.50;;;;;;5035674;28;20064;-57
2021/04/07 11:59:31;;;;;;;3.05;1.30;;;24.80;27.40;;;;;;5042336;28;20326;-58
2021/04/07 12:02:01;;;;;;;3.00;1.30;;;24.80;27.40;;;;;;5047213;28;20033;-57
2021/04/07 12:04:28;;;;;;;2.55;1.05;;;24.80;27.30;;;;;;5048801;28;20067;-56
2021/04/07 12:06:57;;;;;;;2.83;1.08;;;24.80;27.20;;;;;;5039206;28;20041;-55
2021/04/07 12:09:24;;;;;;;2.58;1.10;;;24.80;27.20;;;;;;5023423;28;20032;-57
2021/04/07 12:11:50;;;;;;;3.20;1.30;;;24.80;27.10;;;;;;5041168;28;20025;-55
2021/04/07 12:14:16;;;;;;;3.70;1.27;;;24.80;27.10;;;;;;5044981;28;20036;-60
2021/04/07 12:16:42;;;;;;;2.50;1.08;;;24.80;27.10;;;;;;5039051;28;20099;-56
2021/04/07 12:19:09;;;;;;;2.80;1.00;;;24.80;27.20;;;;;;5021368;28;20432;-48
2021/04/07 12:21:36;;;;;;;2.38;1.20;;;24.70;27.20;;;;;;5038261;28;20120;-56
2021/04/07 12:24:03;;;;;;;3.35;1.30;;;24.80;27.30;;;;;;5042579;28;20463;-58
2021/04/07 12:26:29;;;;;;;2.22;0.88;;;24.80;27.30;;;;;;5039507;28;20388;-55
2021/04/07 12:28:57;;;;;;;3.33;1.30;;;24.80;27.20;;;;;;5042334;28;20045;-60
2021/04/07 12:31:23;;;;;;;2.78;1.52;;;24.80;27.20;;;;;;5038510;28;20025;-47
2021/04/07 12:33:52;;;;;;;3.00;1.10;;;24.80;27.20;;;;;;5041260;28;20025;-56
2021/04/07 12:36:19;;;;;;;3.75;1.10;;;24.80;27.60;;;;;;5011297;28;20047;-55
2021/04/07 12:38:45;;;;;;;3.17;1.15;;;24.80;27.00;;;;;;5038886;28;20045;-52
2021/04/07 12:41:31;;;;;;;2.47;1.23;;;24.80;27.00;;;;;;5041755;28;20029;-54
2021/04/07 12:44:00;;;;;;;2.60;1.00;;;24.80;26.90;;;;;;5039343;28;20030;-59
2021/04/07 12:46:25;;;;;;;2.78;1.10;;;24.90;26.90;;;;;;5038555;28;20094;-57
2021/04/07 12:48:53;;;;;;;2.95;1.30;;;24.80;26.80;;;;;;5040479;28;20080;-58
2021/04/07 12:51:20;;;;;;;2.33;0.88;;;24.80;26.70;;;;;;5041444;28;20032;-57
2021/04/07 12:53:47;;;;;;;2.70;1.00;;;24.90;27.10;;;;;;5040147;28;20029;-60
2021/04/07 12:56:16;;;;;;;2.15;0.80;;;24.90;26.60;;;;;;5040464;28;20079;-59